Isle of Canna, United Kingdom
Current Conditions -  °F | °C
As of 11:50 AM on Wednesday 28 Jan 2015 (Local Time) from EGPU Reporting Station
Hail Hail  
Wind Chill: 26°   Ceiling: 2600
Heat Index: 39°   Visibility: 1.8mi
Dew Point: 32°   Wind: 39mph
Humidity: 75%   Direction: 290°WNW
Pressure: 29.23"   Gusts: NA
Location:  57.06°N, 6.5°W
Report Text: EGPU 281150Z 29034KT 3000 -SHRAGS FEW011 SCT018CB BKN026 04/00 Q0990
Loading
Personal Weather Stations






























Interactive Weather Map New forecast layout! Learn more

10-Day Weather Forecast

Advertisements
Track Severe Weather on mobile